Portada
METAR-TAF:

METAR-TAF

Aeroports :

Talara, Perú

latitud: 04-34S, longitud: 081-15W, altitud: 85 m

Observació

L'informe es va fer fa 5 hores i 51 minuts, a les 19:00 UTC
Vent 15 kt del Sud/Sud-Oest
Temperatura 26°C
Humitat 58%
Pressió 1011 hPa
Visibilitat 10 km o més
sense núvols per sota de 1500 mi sense presència de cumulonimbus.

METAR: SPYL 251900Z 21015KT CAVOK 26/17 Q1011 RMK BIRD HAZARD RWY 17/35 PP000

Hora: 19:51 (00:51 UTC)

Pronòstic

L'informe es va fer fa 8 hores i 21 minuts, a les 16:30 UTC
Pronòstic vàlid del 25 a les 18 UTC al 26 a les 18 UTC
Vent 17 kt del Sud/Sud-Est
Visibilitat 10 km o més
sense núvols per sota de 1500 mi sense presència de cumulonimbus.
Temporalment
l' 26 a les 12 UTC al 26 a les 15 UTC
Núvols disperses a una alçada de 5000 ft

TAF: SPYL 251630Z 2518/2618 16017KT CAVOK TX29/2519Z TN16/2611Z TEMPO 2612/2615 SCT050

Observacions i pronòstics meteorològics de més de 4000 aeroports (METAR i TAF).

Les estacions disponibles són els punts grocs i vermells al mapa.

Posi el ratolí al punt desitjat per veure el nom de l'estació.

Feu clic per veure les observacions i els pronòstics meteorològics.

Per canviar el mapa: feu clic els botons verds amb una creu de color negre per apropar; al botó verd amb un guió per allunyar la imatge; o en les fletxes verdes per a mapes adjacents.


METAR-TAF: